Flight Track Log - Related Links

Times and Time Zones

All times are in EDT time to prevent confusion due to time zone crossing. See the FLG3800 flight status page for this flight to view local times or setup timezone preferences in your user account.

Time Position Orientation Groundspeed Altitude Reporting Facility
EDT Latitude Longitude Course Direction KTS MPH feet Rate Location/Type
Fri 08:25:10 AM 42.2014 -85.5358 106° East 175 201 2,500  Level Chicago Center
Fri 08:26:12 AM 42.1611 -85.4664 128° Southeast 237 273 4,900 2,341 Climbing Chicago Center
Fri 08:27:00 AM 42.1675 -85.2886 103° East  Level FlightAware Approximate
Fri 08:27:13 AM 42.1256 -85.3725 117° Southeast 274 315 7,300  Level Chicago Center
Fri 08:28:00 AM 42.1556 -85.1982 106° East  Level FlightAware Approximate
Fri 08:28:15 AM 42.1128 -85.2492 98° East 304 350 9,800  Level Chicago Center
Fri 08:28:33 AM 42.1125 -85.2133 91° East 301 346 9,900 538 Climbing Cleveland Center
Fri 08:29:00 AM 42.1366 -85.1092 106° East  Level FlightAware Approximate
Fri 08:29:33 AM 42.0989 -85.0836 98° East 325 374 10,500  Level Cleveland Center
Fri 08:30:00 AM 42.1175 -85.0203 106° East  Level FlightAware Approximate
Fri 08:30:33 AM 42.0831 -84.9511 99° East 343 395 10,900  Level Cleveland Center
Fri 08:31:33 AM 42.0708 -84.8328 98° East 353 406 11,000 500 Climbing Cleveland Center
Fri 08:32:33 AM 42.0358 -84.7072 111° Southeast 354 407 11,900 450 Climbing Cleveland Center
Fri 08:33:33 AM 41.9861 -84.5839 118° Southeast 354 407 11,900  Level Cleveland Center
Fri 08:34:33 AM 41.9508 -84.4531 110° East 366 421 11,900  Level Cleveland Center
Fri 08:35:33 AM 41.9094 -84.3194 113° Southeast 378 435 11,900 71 Level Cleveland Center
Fri 08:35:57 AM 41.8867 -84.2511 114° Southeast 384 442 12,000  Climbing Cleveland Center
Fri 08:36:33 AM 41.8619 -84.1744 113° Southeast 383 441 11,900  Descending Cleveland Center
Fri 08:37:16 AM 41.8422 -84.0731 105° East 396 456 12,000  Climbing Cleveland Center
Fri 08:37:33 AM 41.8408 -84.0478 94° East 383 441 11,900  Descending Cleveland Center
Fri 08:38:17 AM 41.8861 -83.9331 62° Northeast 442 509 12,000  Climbing Cleveland Center
Fri 08:38:33 AM 41.9011 -83.9117 47° Northeast 377 434 11,900  Descending Cleveland Center
Fri 08:39:18 AM 41.9725 -83.8203 44° Northeast 434 499 12,000  Climbing Cleveland Center
Fri 08:39:33 AM 41.9856 -83.8014 47° Northeast 377 434 11,900  Descending Cleveland Center
Fri 08:40:18 AM 42.0569 -83.7128 43° Northeast 415 478 12,000  Climbing Cleveland Center
Fri 08:40:33 AM 42.0678 -83.6936 53° Northeast 396 456 11,900  Descending Cleveland Center
Fri 08:41:19 AM 42.1411 -83.6075 41° Northeast 358 412 12,000 56 Climbing Cleveland Center
Fri 08:42:20 AM 42.2097 -83.5381 37° Northeast 299 344 12,000 -443 Level Cleveland Center
Fri 08:43:21 AM 42.2922 -83.4883 24° Northeast 311 358 11,100 -1,086 Descending Cleveland Center
Fri 08:44:16 AM 42.3578 -83.4522 22° Northeast 287 330 9,900 -1,417 Descending Cleveland Center
Fri 08:44:33 AM 42.3789 -83.4419 20° North 295 339 9,400 -1,770 Descending Cleveland Center
Fri 08:45:17 AM 42.4358 -83.4164 18° North 296 341 8,100 -1,900 Descending Cleveland Center
Fri 08:45:33 AM 42.4547 -83.4031 28° Northeast 295 339 7,500 -1,881 Descending Cleveland Center
Fri 08:46:24 AM 42.5181 -83.3750 18° North 255 293 6,000 -1,768 Descending Cleveland Center
Fri 08:47:25 AM 42.5450 -83.2917 66° East 242 278 4,200 -891 Descending Cleveland Center
Fri 08:48:32 AM 42.5494 -83.1903 87° East 231 266 4,100 -47 Descending Cleveland Center
Fri 08:49:33 AM 42.5042 -83.1631 156° South 178 205 4,100  Level Cleveland Center

Login

Don't have an account? Register now (free) for customized features, flight alerts, and more!